X  Close Metar Aviation Weather Data        LPMA Madeira Airport
Temperature
22°C Temperature
17°C Dewpoint
73% Humidity



Wind
7 MPH
11 KM/H
3 M/S
6 KTS



10°
N
Current Conditions

Partly Cloudy Partly Cloudy
Pressure 1022 (hPa) - 30.18 (inHg)
Visibility 6 (mile) - 10 (km)
Airport
Airport-code LPMA

Location: Madeira Airport
Distance: 51 (mi)

Metar:
METAR LPMA 142130Z 01006KT 310V050 9999 FEW016 SCT040 22/17 Q1022

Time: 14-06-2024 22:30 WEST